Time;durP1;ratioP1;P1;durP2;ratioP2;P2;SDS_P1;SDS_P2;PMS_P1;PMS_P2;Temp;Humidity;BMP_temperature;BMP_pressure;BME280_temperature;BME280_humidity;BME280_pressure;Samples;Min_cycle;Max_cycle;Signal;HPM_P1;HPM_P2
2021/12/23 00:01:15;;;;;;;40.05;24.05;;;;;;;-3.78;88.76;101640.69;7394285;19;20022;-66
2021/12/23 00:03:43;;;;;;;40.20;23.55;;;;;;;-3.78;88.73;101628.78;7394489;19;20417;-65
2021/12/23 00:06:11;;;;;;;40.83;24.50;;;;;;;-3.77;88.71;101625.41;7394355;19;20022;-66
2021/12/23 00:08:42;;;;;;;35.88;22.33;;;;;;;-3.77;88.82;101630.53;7394089;19;20035;-65
2021/12/23 00:11:10;;;;;;;35.92;21.35;;;;;;;-3.77;88.67;101616.81;7394403;19;20018;-66
2021/12/23 00:13:48;;;;;;;34.63;21.42;;;;;;;-3.78;88.63;101622.75;7393822;19;20015;-64
2021/12/23 00:16:18;;;;;;;35.92;21.13;;;;;;;-3.76;88.50;101623.72;7393489;19;20107;-65
2021/12/23 00:18:54;;;;;;;34.88;20.70;;;;;;;-3.75;88.80;101620.34;7395456;19;20090;-65
2021/12/23 00:24:06;;;;;;;37.92;20.85;;;;;;;-3.73;88.79;101620.41;7395017;19;20038;-66
2021/12/23 00:26:34;;;;;;;35.17;21.35;;;;;;;-3.71;88.82;101611.13;7395360;19;20027;-66
2021/12/23 00:29:03;;;;;;;33.00;20.08;;;;;;;-3.71;88.81;101606.00;7393317;19;20035;-66
2021/12/23 00:31:44;;;;;;;40.30;22.02;;;;;;;-3.71;88.82;101601.75;7392432;19;20014;-65
2021/12/23 00:34:12;;;;;;;35.38;21.13;;;;;;;-3.70;88.53;101597.47;7394652;19;20022;-65
2021/12/23 00:36:43;;;;;;;35.72;21.90;;;;;;;-3.70;88.96;101593.25;7392933;19;20045;-65
2021/12/23 00:39:15;;;;;;;36.85;20.90;;;;;;;-3.69;88.56;101584.75;7392981;19;20019;-66
2021/12/23 00:41:45;;;;;;;35.10;21.08;;;;;;;-3.67;88.86;101587.41;7394465;19;20018;-65
2021/12/23 00:44:14;;;;;;;34.47;20.27;;;;;;;-3.67;88.86;101579.69;7392532;19;20027;-65
2021/12/23 00:46:42;;;;;;;34.45;21.25;;;;;;;-3.66;89.02;101576.34;7394455;19;20019;-65
2021/12/23 00:49:10;;;;;;;35.08;20.83;;;;;;;-3.65;88.63;101570.38;7394290;19;20023;-65
2021/12/23 00:51:38;;;;;;;37.25;21.50;;;;;;;-3.65;88.75;101561.00;7394191;19;20032;-64
2021/12/23 00:54:07;;;;;;;36.92;21.00;;;;;;;-3.65;88.79;101558.44;7393858;19;20035;-66
2021/12/23 00:56:39;;;;;;;36.65;20.48;;;;;;;-3.65;88.89;101555.88;7399416;19;20011;-66
2021/12/23 00:59:11;;;;;;;41.55;22.23;;;;;;;-3.64;88.71;101554.19;7399361;19;20015;-66
2021/12/23 01:01:39;;;;;;;36.00;20.98;;;;;;;-3.64;88.89;101556.75;7398443;19;20504;-65
2021/12/23 01:04:07;;;;;;;37.22;21.98;;;;;;;-3.64;88.78;101552.53;7398792;19;20014;-65
2021/12/23 01:06:35;;;;;;;38.25;23.45;;;;;;;-3.65;88.75;101544.72;7398834;19;20022;-65
2021/12/23 01:09:03;;;;;;;31.85;20.25;;;;;;;-3.63;88.76;101548.25;7400900;19;20389;-66
2021/12/23 01:11:32;;;;;;;35.60;20.83;;;;;;;-3.63;88.94;101551.72;7401357;19;20472;-66
2021/12/23 01:14:24;;;;;;;34.22;21.63;;;;;;;-3.65;88.68;101542.16;7400879;19;20023;-66
2021/12/23 01:17:11;;;;;;;38.38;21.75;;;;;;;-3.65;88.79;101544.72;7400689;19;20339;-66
2021/12/23 01:19:41;;;;;;;35.95;20.67;;;;;;;-3.67;88.74;101549.78;7401288;19;20476;-65
2021/12/23 01:22:10;;;;;;;34.75;21.33;;;;;;;-3.68;89.03;101542.03;7400904;19;20021;-66
2021/12/23 01:24:39;;;;;;;37.53;21.98;;;;;;;-3.70;88.93;101544.53;7400242;19;20037;-65
2021/12/23 01:27:07;;;;;;;38.08;22.58;;;;;;;-3.70;88.89;101543.63;7401177;19;20519;-66
2021/12/23 01:29:38;;;;;;;33.95;21.80;;;;;;;-3.80;88.95;101527.78;7397853;19;20035;-66
2021/12/23 01:32:08;;;;;;;33.90;21.40;;;;;;;-3.74;88.86;101540.06;7400073;19;20011;-66
2021/12/23 01:34:38;;;;;;;30.88;19.73;;;;;;;-3.78;88.78;101535.56;7400108;19;20015;-66
2021/12/23 01:37:07;;;;;;;33.55;21.05;;;;;;;-3.78;89.17;101539.00;7400132;19;20429;-66
2021/12/23 01:39:35;;;;;;;32.33;19.48;;;;;;;-3.80;89.07;101544.88;7397779;19;20019;-66
2021/12/23 01:42:04;;;;;;;33.55;21.00;;;;;;;-3.81;89.07;101536.28;7399942;19;20019;-66
2021/12/23 01:44:32;;;;;;;34.25;21.60;;;;;;;-3.83;88.74;101543.03;7399523;19;20011;-66
2021/12/23 01:47:02;;;;;;;35.80;21.42;;;;;;;-3.85;89.02;101538.63;7397173;19;20514;-66
2021/12/23 01:49:31;;;;;;;36.58;22.40;;;;;;;-3.86;88.94;101536.88;7400586;19;20027;-66
2021/12/23 01:52:00;;;;;;;35.38;22.30;;;;;;;-3.88;89.00;101534.25;7400083;19;20033;-65
2021/12/23 01:54:28;;;;;;;37.85;22.33;;;;;;;-3.88;88.79;101530.78;7399407;19;20018;-66
2021/12/23 01:56:57;;;;;;;30.85;20.20;;;;;;;-3.90;89.00;101520.44;7399932;19;20015;-66
2021/12/23 01:59:25;;;;;;;31.13;19.52;;;;;;;-3.90;88.90;101522.13;7396952;19;20487;-66
2021/12/23 02:01:53;;;;;;;37.67;22.48;;;;;;;-3.91;88.78;101521.25;7399264;19;20385;-66
2021/12/23 02:04:24;;;;;;;35.78;20.92;;;;;;;-3.93;89.09;101510.03;7399143;19;20023;-66
2021/12/23 02:06:52;;;;;;;35.97;20.55;;;;;;;-3.93;88.99;101504.91;7398645;19;20039;-65
2021/12/23 02:09:20;;;;;;;37.38;23.20;;;;;;;-3.94;88.96;101496.34;7399607;19;20018;-64
2021/12/23 02:11:48;;;;;;;39.65;22.15;;;;;;;-3.96;89.24;101497.94;7397066;19;20022;-64
2021/12/23 02:14:21;;;;;;;35.72;21.42;;;;;;;-3.97;89.17;101491.06;7400546;19;20022;-64
2021/12/23 02:16:50;;;;;;;35.83;21.33;;;;;;;-3.97;89.18;101487.63;7397358;19;20021;-63
2021/12/23 02:19:19;;;;;;;37.90;21.70;;;;;;;-3.97;89.19;101485.06;7399275;19;20031;-62
2021/12/23 02:22:13;;;;;;;34.13;20.45;;;;;;;-3.97;89.21;101477.38;7398765;19;20014;-62
2021/12/23 02:24:41;;;;;;;33.90;21.25;;;;;;;-3.96;89.07;101469.75;7398542;19;20035;-63
2021/12/23 02:27:12;;;;;;;41.70;22.98;;;;;;;-3.97;89.21;101460.31;7398991;19;20014;-63
2021/12/23 02:29:40;;;;;;;36.00;21.63;;;;;;;-3.95;89.07;101460.38;7399392;19;20019;-63
2021/12/23 02:32:22;;;;;;;35.55;22.30;;;;;;;-3.95;89.07;101452.69;7396222;19;20018;-63
2021/12/23 02:34:50;;;;;;;37.50;22.45;;;;;;;-3.94;89.36;101449.31;7396644;19;20019;-62
2021/12/23 02:37:20;;;;;;;37.50;21.83;;;;;;;-3.94;89.13;101445.06;7398928;19;20061;-64
2021/12/23 02:39:49;;;;;;;38.85;23.08;;;;;;;-3.91;89.28;101420.41;7399114;19;20015;-62
2021/12/23 02:42:17;;;;;;;33.60;21.42;;;;;;;-3.89;89.06;101423.88;7398502;19;20018;-63
2021/12/23 02:44:45;;;;;;;35.65;22.75;;;;;;;-3.89;89.08;101417.09;7396026;19;20377;-64
2021/12/23 02:47:13;;;;;;;37.35;23.45;;;;;;;-3.86;89.22;101413.81;7398219;19;20512;-63
2021/12/23 02:49:41;;;;;;;38.88;23.08;;;;;;;-3.85;89.15;101402.75;7398496;19;20356;-62
2021/12/23 02:52:10;;;;;;;36.08;23.27;;;;;;;-3.82;89.34;101397.75;7398354;19;20023;-68
2021/12/23 02:54:40;;;;;;;39.53;24.13;;;;;;;-3.81;89.28;101391.81;7397613;19;20039;-64
2021/12/23 02:57:09;;;;;;;36.15;22.55;;;;;;;-3.79;89.05;101401.34;7396397;19;20019;-64
2021/12/23 02:59:37;;;;;;;39.83;24.23;;;;;;;-3.78;89.12;101397.97;7396522;19;20026;-64
2021/12/23 03:02:06;;;;;;;42.97;23.80;;;;;;;-3.78;89.07;101389.38;7398182;19;20495;-64
2021/12/23 03:04:34;;;;;;;43.55;25.33;;;;;;;-3.78;88.83;101390.28;7395483;19;20384;-64
2021/12/23 03:07:02;;;;;;;41.00;24.35;;;;;;;-3.77;89.38;101386.91;7397501;19;20494;-64
2021/12/23 03:09:30;;;;;;;40.63;23.98;;;;;;;-3.75;89.09;101381.84;7396390;19;20027;-65
2021/12/23 03:12:01;;;;;;;44.15;24.17;;;;;;;-3.73;89.51;101375.09;7397350;19;20515;-65
2021/12/23 03:14:29;;;;;;;38.88;24.23;;;;;;;-3.72;89.23;101369.16;7397347;19;20378;-65
2021/12/23 03:16:58;;;;;;;36.70;23.60;;;;;;;-3.70;89.43;101365.00;7397204;19;20500;-65
2021/12/23 03:19:26;;;;;;;39.00;24.08;;;;;;;-3.68;89.33;101354.78;7395744;19;20022;-65
2021/12/23 03:21:54;;;;;;;41.45;24.67;;;;;;;-3.68;89.27;101352.22;7396224;19;20530;-67
2021/12/23 03:24:22;;;;;;;43.28;24.98;;;;;;;-3.63;89.52;101346.53;7396552;19;20499;-66
2021/12/23 03:26:51;;;;;;;46.97;27.00;;;;;;;-3.62;89.33;101339.69;7395433;19;20022;-65
2021/12/23 03:29:21;;;;;;;45.58;26.67;;;;;;;-3.61;89.13;101333.75;7397112;19;20021;-65
2021/12/23 03:31:49;;;;;;;43.38;24.45;;;;;;;-3.58;89.45;101327.88;7394889;19;20026;-65
2021/12/23 03:34:18;;;;;;;47.08;26.45;;;;;;;-3.57;89.21;101327.94;7394849;19;20015;-67
2021/12/23 03:36:46;;;;;;;45.65;25.17;;;;;;;-3.54;89.07;101333.19;7396544;19;20018;-65
2021/12/23 03:39:14;;;;;;;47.90;26.20;;;;;;;-3.52;89.03;101325.59;7396490;19;20023;-66
2021/12/23 03:41:42;;;;;;;40.60;24.23;;;;;;;-3.51;89.03;101314.53;7396703;19;20031;-66
2021/12/23 03:44:10;;;;;;;44.60;25.63;;;;;;;-3.50;89.05;101306.00;7394706;19;20035;-66
2021/12/23 03:46:41;;;;;;;36.83;23.23;;;;;;;-3.49;89.09;101298.41;7396259;19;20373;-64
2021/12/23 03:49:10;;;;;;;38.20;23.67;;;;;;;-3.47;89.04;101298.47;7394597;19;20019;-66
2021/12/23 03:51:39;;;;;;;42.83;24.50;;;;;;;-3.45;89.19;101284.00;7394762;19;20018;-66
2021/12/23 03:54:08;;;;;;;43.40;24.35;;;;;;;-3.44;88.99;101280.63;7396111;19;20022;-66
2021/12/23 03:56:36;;;;;;;43.53;24.73;;;;;;;-3.44;88.82;101278.06;7396118;19;20032;-66
2021/12/23 03:59:05;;;;;;;46.35;25.80;;;;;;;-3.43;88.90;101279.81;7394360;19;20022;-66
2021/12/23 04:01:34;;;;;;;39.92;24.48;;;;;;;-3.42;88.68;101273.00;7394033;19;20341;-66
2021/12/23 04:04:05;;;;;;;39.97;24.52;;;;;;;-3.41;88.97;101257.69;7394739;19;20105;-66
2021/12/23 04:06:33;;;;;;;41.75;26.05;;;;;;;-3.39;88.75;101255.19;7396084;19;20018;-66
2021/12/23 04:09:02;;;;;;;44.60;25.13;;;;;;;-3.38;88.90;101246.69;7394007;19;20031;-67
2021/12/23 04:11:30;;;;;;;44.35;25.50;;;;;;;-3.36;88.84;101239.91;7395913;19;20021;-66
2021/12/23 04:13:58;;;;;;;46.60;26.42;;;;;;;-3.36;88.84;101235.66;7395579;19;20026;-67
2021/12/23 04:16:26;;;;;;;42.60;24.55;;;;;;;-3.35;88.81;101227.16;7395552;19;20040;-66
2021/12/23 04:18:55;;;;;;;44.10;25.63;;;;;;;-3.33;88.88;101224.66;7393649;19;20386;-66
2021/12/23 04:21:26;;;;;;;43.15;25.67;;;;;;;-3.32;89.13;101223.84;7393811;19;20019;-66
2021/12/23 04:23:54;;;;;;;48.85;26.88;;;;;;;-3.32;89.12;101228.97;7393603;19;20015;-66
2021/12/23 04:26:22;;;;;;;42.03;24.33;;;;;;;-3.31;88.87;101226.47;7393811;19;20019;-66
2021/12/23 04:28:51;;;;;;;50.22;26.80;;;;;;;-3.31;88.87;101223.00;7395333;19;20035;-67
2021/12/23 04:31:22;;;;;;;47.08;26.02;;;;;;;-3.30;88.76;101222.19;7394366;19;20078;-67
2021/12/23 04:33:52;;;;;;;41.97;25.67;;;;;;;-3.30;88.55;101222.19;7393316;19;20007;-67
2021/12/23 04:36:21;;;;;;;48.85;25.00;;;;;;;-3.31;88.68;101210.19;7395426;19;20019;-66
2021/12/23 04:38:52;;;;;;;42.17;24.95;;;;;;;-3.30;88.77;101204.25;7394916;19;20015;-67
2021/12/23 04:41:20;;;;;;;47.55;26.13;;;;;;;-3.30;88.79;101204.25;7395645;19;20014;-67
2021/12/23 04:43:48;;;;;;;46.92;26.83;;;;;;;-3.30;88.88;101201.69;7393913;19;20016;-67
2021/12/23 04:46:17;;;;;;;50.25;26.15;;;;;;;-3.30;88.85;101191.41;7392985;19;20043;-66
2021/12/23 04:48:47;;;;;;;42.25;25.05;;;;;;;-3.29;88.83;101193.16;7394690;19;20006;-67
2021/12/23 04:51:16;;;;;;;45.13;26.40;;;;;;;-3.30;88.68;101179.47;7392948;19;20018;-67
2021/12/23 04:53:44;;;;;;;44.40;25.27;;;;;;;-3.30;88.70;101176.00;7394872;19;20022;-67
2021/12/23 04:56:17;;;;;;;45.65;25.42;;;;;;;-3.32;88.23;101175.97;7392528;19;20371;-66
2021/12/23 04:58:46;;;;;;;43.42;24.90;;;;;;;-3.30;88.30;101164.09;7395032;19;20015;-68
2021/12/23 05:01:20;;;;;;;42.78;25.20;;;;;;;-3.31;88.46;101158.84;7394531;19;20022;-67
2021/12/23 05:03:49;;;;;;;44.60;26.13;;;;;;;-3.31;88.36;101154.63;7393572;19;20349;-67
2021/12/23 05:06:18;;;;;;;39.92;24.55;;;;;;;-3.30;88.67;101152.91;7392245;19;20018;-67
2021/12/23 05:08:46;;;;;;;43.97;25.30;;;;;;;-3.29;88.43;101139.28;7394145;19;20417;-66
2021/12/23 05:11:17;;;;;;;40.15;23.70;;;;;;;-3.27;88.54;101145.38;7393930;19;20035;-66
2021/12/23 05:13:47;;;;;;;44.47;23.85;;;;;;;-3.28;88.58;101139.34;7391760;19;20349;-66
2021/12/23 05:16:15;;;;;;;38.97;24.33;;;;;;;-3.24;88.32;101144.63;7391864;19;20025;-66
2021/12/23 05:18:43;;;;;;;43.63;26.13;;;;;;;-3.23;88.52;101147.22;7393542;19;20354;-66
2021/12/23 05:21:12;;;;;;;42.08;23.23;;;;;;;-3.21;88.19;101148.19;7391888;19;20022;-66
2021/12/23 05:23:40;;;;;;;41.97;23.13;;;;;;;-3.21;88.43;101143.06;7390797;19;20483;-66
2021/12/23 05:26:08;;;;;;;42.92;23.15;;;;;;;-3.17;88.11;101144.03;7391284;19;20019;-66
2021/12/23 05:28:39;;;;;;;38.03;23.73;;;;;;;-3.16;88.13;101138.97;7394484;19;20023;-67
2021/12/23 05:31:08;;;;;;;36.28;22.40;;;;;;;-3.12;88.16;101133.16;7392154;19;20022;-67
2021/12/23 05:33:36;;;;;;;36.78;21.35;;;;;;;-3.08;88.11;101123.00;7391191;19;20507;-67
2021/12/23 05:36:04;;;;;;;38.42;22.60;;;;;;;-3.06;87.87;101129.06;7391708;19;20031;-66
2021/12/23 05:38:33;;;;;;;38.97;22.02;;;;;;;-3.03;88.00;101122.38;7393190;19;20425;-67
2021/12/23 05:41:01;;;;;;;120.55;58.15;;;;;;;-2.99;87.55;101129.38;7392598;19;20479;-67
2021/12/23 05:43:29;;;;;;;45.97;24.80;;;;;;;-2.96;87.90;101129.50;7397489;19;20015;-67
2021/12/23 05:46:00;;;;;;;36.00;21.70;;;;;;;-2.92;87.36;101124.47;7397693;19;20404;-66
2021/12/23 05:48:28;;;;;;;34.30;21.45;;;;;;;-2.90;87.30;101128.88;7397557;19;20505;-67
2021/12/23 05:50:57;;;;;;;34.78;20.98;;;;;;;-2.87;87.46;101131.56;7397527;19;20022;-67
2021/12/23 05:53:25;;;;;;;41.40;22.40;;;;;;;-2.83;87.53;101124.81;7400397;19;20018;-67
2021/12/23 05:55:53;;;;;;;32.97;20.05;;;;;;;-2.81;87.22;101112.94;7397476;19;20507;-67
2021/12/23 05:58:21;;;;;;;33.88;21.33;;;;;;;-2.79;87.01;101109.59;7397710;19;20019;-67
2021/12/23 06:00:53;;;;;;;35.90;21.63;;;;;;;-2.76;86.46;101103.72;7399550;19;20370;-67
2021/12/23 06:03:24;;;;;;;31.98;21.25;;;;;;;-2.74;86.61;101096.06;7397789;19;20015;-67
2021/12/23 06:05:53;;;;;;;33.92;21.45;;;;;;;-2.72;86.50;101090.16;7397994;19;20019;-66
2021/12/23 06:08:21;;;;;;;33.63;20.70;;;;;;;-2.69;85.74;101084.25;7397132;19;20022;-67
2021/12/23 06:10:49;;;;;;;36.28;20.67;;;;;;;-2.68;85.70;101083.44;7399556;19;20031;-67
2021/12/23 06:13:17;;;;;;;31.98;20.15;;;;;;;-2.66;85.89;101074.13;7399380;19;20507;-67
2021/12/23 06:15:46;;;;;;;32.35;20.33;;;;;;;-2.64;85.81;101069.94;7397195;19;20026;-67
2021/12/23 06:18:14;;;;;;;37.17;20.77;;;;;;;-2.65;86.21;101066.47;7397047;19;20023;-67
2021/12/23 06:20:44;;;;;;;34.60;20.52;;;;;;;-2.59;85.80;101076.13;7399037;19;20423;-66
2021/12/23 06:23:13;;;;;;;31.10;19.92;;;;;;;-2.57;85.63;101065.88;7398464;19;20018;-67
2021/12/23 06:25:41;;;;;;;32.22;20.50;;;;;;;-2.55;85.81;101077.97;7396826;19;20022;-67
2021/12/23 06:28:09;;;;;;;32.95;20.35;;;;;;;-2.52;85.27;101064.34;7399228;19;20014;-66
2021/12/23 06:30:37;;;;;;;31.88;19.80;;;;;;;-2.50;85.23;101047.31;7398630;19;20483;-66
2021/12/23 06:33:05;;;;;;;37.33;22.52;;;;;;;-2.51;85.14;101043.84;7397650;19;20031;-66
2021/12/23 06:35:34;;;;;;;33.83;20.77;;;;;;;-2.47;83.97;101039.69;7397237;19;20039;-66
2021/12/23 06:38:09;;;;;;;34.35;20.50;;;;;;;-2.47;83.96;101017.44;7396209;19;20019;-66
2021/12/23 06:40:39;;;;;;;26.63;18.73;;;;;;;-2.49;84.27;101016.53;7396640;19;20479;-66
2021/12/23 06:43:07;;;;;;;31.27;20.25;;;;;;;-2.43;85.00;101010.72;7395695;19;20022;-66
2021/12/23 06:45:35;;;;;;;34.30;20.08;;;;;;;-2.42;84.53;101009.91;7395866;19;20018;-66
2021/12/23 06:48:03;;;;;;;31.90;19.88;;;;;;;-2.40;84.44;101028.84;7396441;19;20026;-66
2021/12/23 06:50:32;;;;;;;40.10;21.88;;;;;;;-2.38;83.51;101031.47;7398569;19;20036;-66
2021/12/23 06:53:00;;;;;;;38.70;22.38;;;;;;;-2.38;84.05;101019.47;7395919;19;20019;-66
2021/12/23 06:55:37;;;;;;;31.77;20.35;;;;;;;-2.35;83.40;101026.41;7397183;19;20030;-67
2021/12/23 06:58:06;;;;;;;32.53;18.88;;;;;;;-2.34;84.04;101023.03;7397989;19;20517;-66
2021/12/23 07:00:34;;;;;;;35.22;20.90;;;;;;;-2.32;83.49;101027.41;7398214;19;20034;-67
2021/12/23 07:03:02;;;;;;;31.15;18.95;;;;;;;-2.30;83.50;101022.31;7397979;19;20018;-66
2021/12/23 07:05:30;;;;;;;32.28;19.30;;;;;;;-2.28;83.17;100996.69;7395159;19;20378;-66
2021/12/23 07:08:05;;;;;;;33.92;18.52;;;;;;;-2.26;83.40;101005.31;7395276;19;20068;-66
2021/12/23 07:10:37;;;;;;;33.90;18.92;;;;;;;-2.26;82.70;101011.34;7395490;19;20021;-65
2021/12/23 07:13:06;;;;;;;32.75;20.13;;;;;;;-2.26;81.98;100993.34;7397811;19;20018;-66
2021/12/23 07:15:36;;;;;;;32.08;18.92;;;;;;;-2.24;82.85;101001.09;7395235;19;20018;-67
2021/12/23 07:18:04;;;;;;;30.67;19.42;;;;;;;-2.23;83.43;101005.41;7395120;19;20021;-67
2021/12/23 07:20:33;;;;;;;33.30;18.95;;;;;;;-2.22;83.59;101005.47;7396763;19;20417;-67
2021/12/23 07:23:01;;;;;;;38.17;21.75;;;;;;;-2.20;83.62;101010.66;7396942;19;20102;-67
2021/12/23 07:25:29;;;;;;;37.25;20.35;;;;;;;-2.18;83.37;101006.44;7395492;19;20032;-67
2021/12/23 07:28:00;;;;;;;30.83;18.70;;;;;;;-2.17;83.00;101006.50;7396885;19;20032;-67
2021/12/23 07:30:28;;;;;;;35.83;20.33;;;;;;;-2.15;82.78;101004.88;7394990;19;20014;-67
2021/12/23 07:32:56;;;;;;;31.40;19.90;;;;;;;-2.14;82.30;100995.44;7396049;19;20010;-67
2021/12/23 07:35:25;;;;;;;32.42;19.20;;;;;;;-2.13;82.43;100997.19;7395190;19;20015;-67
2021/12/23 07:37:53;;;;;;;30.63;18.58;;;;;;;-2.11;82.60;100999.81;7395137;19;20026;-67
2021/12/23 07:40:22;;;;;;;31.73;18.50;;;;;;;-2.10;82.50;100988.72;7396830;19;20033;-67
2021/12/23 07:43:08;;;;;;;29.45;18.45;;;;;;;-2.09;82.18;100975.91;7395064;19;20031;-67
2021/12/23 07:45:40;;;;;;;31.60;17.80;;;;;;;-2.06;82.51;100980.28;7395216;19;20015;-67
2021/12/23 07:48:08;;;;;;;30.35;18.50;;;;;;;-2.04;81.61;100970.94;7397048;19;20037;-67
2021/12/23 07:50:37;;;;;;;29.20;18.33;;;;;;;-2.02;82.26;100980.44;7396328;19;20569;-66
2021/12/23 07:53:05;;;;;;;32.13;19.20;;;;;;;-1.99;82.12;100969.38;7395692;19;20518;-67
2021/12/23 07:55:33;;;;;;;32.97;17.95;;;;;;;-1.97;82.29;100968.59;7394597;19;20042;-67
2021/12/23 07:58:01;;;;;;;28.05;16.52;;;;;;;-1.95;81.63;100976.38;7394231;19;20014;-67
2021/12/23 08:00:30;;;;;;;30.50;18.27;;;;;;;-1.92;82.29;100976.47;7394400;19;20022;-67
2021/12/23 08:03:00;;;;;;;29.48;18.05;;;;;;;-1.90;81.83;100954.25;7395795;19;20010;-65
2021/12/23 08:05:30;;;;;;;27.42;17.58;;;;;;;-1.87;81.97;100958.59;7392340;19;20026;-66
2021/12/23 08:07:59;;;;;;;27.65;17.17;;;;;;;-1.84;81.89;100945.88;7396007;19;20032;-67
2021/12/23 08:10:33;;;;;;;26.52;17.00;;;;;;;-1.82;81.43;100939.06;7394291;19;20022;-67
2021/12/23 08:13:02;;;;;;;31.35;18.80;;;;;;;-1.80;80.52;100934.84;7395804;19;20014;-66
2021/12/23 08:15:30;;;;;;;29.40;18.05;;;;;;;-1.78;80.35;100933.19;7393202;19;20022;-67
2021/12/23 08:18:01;;;;;;;32.85;19.15;;;;;;;-1.75;80.79;100935.00;7394710;19;20471;-67
2021/12/23 08:20:30;;;;;;;33.53;19.50;;;;;;;-1.72;80.94;100922.22;7393828;19;20039;-66
2021/12/23 08:22:58;;;;;;;29.10;17.55;;;;;;;-1.69;80.93;100930.03;7395373;19;20018;-66
2021/12/23 08:25:26;;;;;;;27.88;17.75;;;;;;;-1.67;81.76;100924.13;7393313;19;20022;-67
2021/12/23 08:27:54;;;;;;;29.70;17.02;;;;;;;-1.64;81.18;100918.19;7393449;19;20022;-67
2021/12/23 08:30:23;;;;;;;27.50;17.70;;;;;;;-1.61;81.94;100915.72;7394963;19;20014;-66
2021/12/23 08:32:52;;;;;;;30.45;19.05;;;;;;;-1.60;81.82;100898.59;7394388;19;20010;-66
2021/12/23 08:35:23;;;;;;;25.90;15.82;;;;;;;-1.56;81.55;100903.84;7394033;19;20022;-67
2021/12/23 08:37:53;;;;;;;25.42;15.05;;;;;;;-1.55;80.75;100900.47;7393678;19;20039;-66
2021/12/23 08:40:24;;;;;;;73.90;36.97;;;;;;;-1.52;80.72;100907.41;7395180;19;20018;-67
2021/12/23 08:42:53;;;;;;;50.28;25.83;;;;;;;-1.49;80.96;100905.78;7393366;19;20028;-67
2021/12/23 08:45:23;;;;;;;31.88;20.05;;;;;;;-1.45;80.85;100903.28;7392458;19;20019;-66
2021/12/23 08:47:51;;;;;;;28.50;17.33;;;;;;;-1.44;80.38;100900.78;7392858;19;20017;-66
2021/12/23 08:50:23;;;;;;;28.20;17.17;;;;;;;-1.40;80.63;100900.03;7392944;19;20022;-66
2021/12/23 08:52:52;;;;;;;26.50;16.70;;;;;;;-1.38;80.18;100885.53;7393003;19;20039;-66
2021/12/23 08:55:21;;;;;;;26.42;16.00;;;;;;;-1.35;79.88;100888.19;7392525;19;20011;-66
2021/12/23 08:57:49;;;;;;;24.90;15.52;;;;;;;-1.33;79.77;100893.38;7394326;19;20348;-67
2021/12/23 09:00:20;;;;;;;23.15;14.98;;;;;;;-1.29;79.99;100891.75;7392474;19;20019;-66
2021/12/23 09:02:49;;;;;;;22.80;15.23;;;;;;;-1.27;80.07;100883.25;7394721;19;20095;-66
2021/12/23 09:05:19;;;;;;;24.35;15.05;;;;;;;-1.25;80.29;100876.47;7392633;19;20014;-66
2021/12/23 09:07:51;;;;;;;21.02;14.13;;;;;;;-1.22;79.61;100878.25;7393353;19;20015;-66
2021/12/23 09:10:20;;;;;;;23.63;15.02;;;;;;;-1.22;79.75;100865.38;7392422;19;20428;-66
2021/12/23 09:12:49;;;;;;;23.65;14.38;;;;;;;-1.18;79.55;100870.63;7392214;19;20480;-65
2021/12/23 09:15:17;;;;;;;21.38;13.63;;;;;;;-1.15;79.76;100870.72;7391734;19;20018;-66
2021/12/23 09:17:45;;;;;;;24.90;15.45;;;;;;;-1.12;79.12;100858.78;7399541;19;20019;-66
2021/12/23 09:20:18;;;;;;;24.20;15.77;;;;;;;-1.11;79.21;100861.41;7398276;19;20019;-66
2021/12/23 09:22:47;;;;;;;24.38;16.33;;;;;;;-1.08;79.14;100855.47;7401413;19;20022;-67
2021/12/23 09:25:24;;;;;;;25.33;16.20;;;;;;;-1.06;78.62;100858.94;7399250;19;20031;-66
2021/12/23 09:28:02;;;;;;;27.95;16.55;;;;;;;-1.06;78.67;100849.53;7400324;19;20028;-66
2021/12/23 09:33:12;;;;;;;24.77;15.75;;;;;;;-1.01;78.83;100841.91;7399835;19;20018;-66
2021/12/23 09:35:41;;;;;;;28.88;16.23;;;;;;;-1.03;78.60;100830.69;7398760;19;20035;-66
2021/12/23 09:38:10;;;;;;;26.80;15.90;;;;;;;-0.97;78.70;100830.88;7401043;19;20018;-65
2021/12/23 09:40:43;;;;;;;29.65;15.77;;;;;;;-0.98;77.47;100818.81;7401272;19;20015;-65
2021/12/23 09:43:13;;;;;;;25.30;15.63;;;;;;;-0.97;78.68;100812.84;7399103;19;20018;-66
2021/12/23 09:45:46;;;;;;;25.13;16.52;;;;;;;-0.96;79.02;100801.72;7398109;19;20018;-66
2021/12/23 09:48:19;;;;;;;24.17;16.03;;;;;;;-0.93;78.00;100793.19;7401263;19;20037;-66
2021/12/23 09:50:47;;;;;;;25.73;14.55;;;;;;;-0.92;78.55;100788.06;7401077;19;20429;-66
2021/12/23 09:53:17;;;;;;;22.13;14.88;;;;;;;-0.89;78.51;100792.44;7397912;19;20031;-66
2021/12/23 09:55:48;;;;;;;22.98;14.48;;;;;;;-0.87;77.21;100781.34;7397826;19;20026;-67
2021/12/23 09:58:17;;;;;;;22.33;14.32;;;;;;;-0.86;78.01;100770.22;7398404;19;20011;-67
2021/12/23 10:00:46;;;;;;;22.38;14.18;;;;;;;-0.84;77.78;100762.50;7399935;19;20365;-65
2021/12/23 10:03:16;;;;;;;25.38;14.40;;;;;;;-0.83;78.11;100753.94;7398055;19;20033;-65
2021/12/23 10:05:44;;;;;;;24.48;14.63;;;;;;;-0.83;77.16;100752.22;7397499;19;20019;-65
2021/12/23 10:08:14;;;;;;;21.05;14.25;;;;;;;-0.79;75.98;100745.47;7396875;19;20479;-66
2021/12/23 10:10:47;;;;;;;21.25;14.43;;;;;;;-0.77;76.97;100722.31;7397352;19;20352;-67
2021/12/23 10:32:35;;;;;;;35.88;20.48;;;;;;;-0.59;75.75;100647.16;7399058;19;20019;-66
2021/12/23 10:38:04;;;;;;;25.05;15.70;;;;;;;-0.58;74.24;100618.84;7398891;19;20010;-66
2021/12/23 10:40:33;;;;;;;24.02;14.80;;;;;;;-0.55;76.47;100610.28;7398227;19;20349;-65
2021/12/23 10:43:02;;;;;;;21.90;14.35;;;;;;;-0.55;77.10;100600.00;7398505;19;20019;-65
2021/12/23 10:45:42;;;;;;;23.20;15.38;;;;;;;-0.51;75.79;100582.03;7396521;19;20022;-65
2021/12/23 10:48:15;;;;;;;24.55;15.00;;;;;;;-0.52;75.79;100567.44;7398618;19;20031;-65
2021/12/23 10:50:47;;;;;;;23.13;15.15;;;;;;;-0.47;76.21;100549.44;7396812;19;20010;-66
2021/12/23 10:53:28;;;;;;;21.92;15.65;;;;;;;-0.45;76.58;100549.50;7398938;19;20023;-65
2021/12/23 10:59:03;;;;;;;26.13;16.10;;;;;;;-0.43;73.81;100524.63;7398318;19;20060;-67
2021/12/23 11:01:36;;;;;;;27.00;17.13;;;;;;;-0.40;75.62;100516.97;7398752;19;20037;-68
2021/12/23 11:04:07;;;;;;;27.17;16.88;;;;;;;-0.38;75.64;100523.00;7398209;19;20014;-68
2021/12/23 11:06:41;;;;;;;23.15;16.33;;;;;;;-0.37;75.65;100517.91;7395951;19;20015;-66
2021/12/23 11:09:31;;;;;;;24.73;15.83;;;;;;;-0.32;75.95;100524.84;7396057;19;20018;-67
2021/12/23 11:27:23;;;;;;;23.10;15.77;;;;;;;-0.30;76.18;100518.88;7397509;19;20478;-67
2021/12/23 11:37:57;;;;;;;25.98;16.00;;;;;;;-0.27;76.31;100562.75;7396615;19;20011;-67
2021/12/23 11:40:49;;;;;;;24.50;16.77;;;;;;;-0.27;76.85;100556.72;7392652;19;20018;-67
2021/12/23 11:43:46;;;;;;;23.42;15.25;;;;;;;-0.26;77.08;100528.41;7395682;19;20360;-67
2021/12/23 11:46:15;;;;;;;26.80;17.13;;;;;;;-0.26;76.86;100525.81;7394283;19;20480;-68
2021/12/23 11:48:45;;;;;;;26.08;17.20;;;;;;;-0.27;77.18;100513.75;7394542;19;20019;-67
2021/12/23 11:51:21;;;;;;;30.10;16.83;;;;;;;-0.23;77.40;100518.16;7394187;19;20371;-66
2021/12/23 11:53:51;;;;;;;25.38;16.92;;;;;;;-0.23;77.55;100492.38;7393967;19;20014;-67
2021/12/23 11:56:22;;;;;;;24.52;16.77;;;;;;;-0.22;77.08;100486.34;7393998;19;20382;-67
2021/12/23 11:58:55;;;;;;;30.70;19.80;;;;;;;-0.21;77.17;100466.59;7394044;19;20483;-66
2021/12/23 12:01:28;;;;;;;29.60;20.67;;;;;;;-0.21;77.42;100462.31;7394134;19;20466;-66
2021/12/23 12:04:00;;;;;;;27.05;18.10;;;;;;;-0.20;77.78;100464.03;7394599;19;20041;-66
2021/12/23 12:06:33;;;;;;;24.13;16.58;;;;;;;-0.19;77.56;100463.22;7394897;19;20041;-67
2021/12/23 12:09:19;;;;;;;23.92;16.40;;;;;;;-0.17;76.32;100455.50;7394215;19;20018;-66
2021/12/23 12:11:52;;;;;;;26.20;17.45;;;;;;;-0.18;76.49;100462.38;7395729;19;20031;-66
2021/12/23 12:14:35;;;;;;;25.98;17.33;;;;;;;-0.16;76.14;100444.34;7394872;19;20022;-66
2021/12/23 12:17:34;;;;;;;27.70;18.05;;;;;;;-0.13;77.07;100451.25;7393713;19;20018;-66